Time;durP1;ratioP1;P1;durP2;ratioP2;P2;SDS_P1;SDS_P2;PMS_P1;PMS_P2;Temp;Humidity;BMP_temperature;BMP_pressure;BME280_temperature;BME280_humidity;BME280_pressure;Samples;Min_cycle;Max_cycle;Signal;HPM_P1;HPM_P2
2022/12/29 00:04:53;;;;;;;1.00;1.00;;;17.30;66.70;;;;;;5046982;28;44795;-75
2022/12/29 00:08:14;;;;;;;0.90;0.90;;;17.30;66.70;;;;;;5046315;28;44134;-75
2022/12/29 00:50:36;;;;;;;0.90;0.90;;;17.30;66.70;;;;;;5100930;27;43391;-74
2022/12/29 01:01:36;;;;;;;0.87;0.87;;;17.40;66.50;;;;;;5079246;28;44497;-76
2022/12/29 01:10:09;;;;;;;0.80;0.80;;;17.40;66.30;;;;;;5085700;28;43402;-76
2022/12/29 01:16:42;;;;;;;0.80;0.80;;;17.40;66.40;;;;;;5050713;28;44713;-77
2022/12/29 01:31:19;;;;;;;0.87;0.87;;;17.30;66.70;;;;;;5082021;28;43448;-76
2022/12/29 01:34:54;;;;;;;0.90;0.90;;;17.30;66.70;;;;;;5077309;28;43489;-75
2022/12/29 01:38:31;;;;;;;0.70;0.70;;;17.30;66.80;;;;;;5097168;27;43507;-76
2022/12/29 01:49:03;;;;;;;0.80;0.80;;;17.50;66.40;;;;;;5095150;27;43453;-75
2022/12/29 02:06:14;;;;;;;0.73;0.73;;;17.40;66.30;;;;;;5105946;27;43425;-75
2022/12/29 02:08:54;;;;;;;0.80;0.80;;;17.40;66.60;;;;;;5076202;27;45415;-74
2022/12/29 02:11:24;;;;;;;0.80;0.80;;;17.30;66.60;;;;;;5104784;27;43518;-76
2022/12/29 02:13:52;;;;;;;0.90;0.90;;;17.30;66.70;;;;;;5079567;27;43895;-77
2022/12/29 02:16:29;;;;;;;0.90;0.90;;;17.30;66.60;;;;;;5083481;27;43522;-75
2022/12/29 02:19:04;;;;;;;0.80;0.80;;;17.30;66.60;;;;;;5070110;27;45702;-73
2022/12/29 02:22:01;;;;;;;0.63;0.63;;;17.30;66.70;;;;;;5079963;27;44652;-76
2022/12/29 02:25:12;;;;;;;0.80;0.80;;;17.30;66.70;;;;;;5063931;28;43524;-77
2022/12/29 02:27:47;;;;;;;1.00;1.00;;;17.30;66.90;;;;;;5105014;27;43464;-78
2022/12/29 02:30:35;;;;;;;0.83;0.83;;;17.30;66.80;;;;;;5079757;28;45423;-76
2022/12/29 02:33:06;;;;;;;0.87;0.87;;;17.40;66.50;;;;;;5096534;27;43567;-75
2022/12/29 02:35:37;;;;;;;0.80;0.80;;;17.50;66.20;;;;;;5089806;27;43499;-77
2022/12/29 02:38:11;;;;;;;0.80;0.80;;;17.50;66.00;;;;;;5081931;27;43556;-77
2022/12/29 02:40:42;;;;;;;0.80;0.80;;;17.50;66.10;;;;;;5103749;27;43949;-75
2022/12/29 02:43:15;;;;;;;0.80;0.80;;;17.40;66.30;;;;;;5084195;27;44620;-77
2022/12/29 02:45:48;;;;;;;0.90;0.90;;;17.50;66.40;;;;;;5080903;27;43491;-76
2022/12/29 02:48:17;;;;;;;0.80;0.80;;;17.40;66.90;;;;;;5086955;27;43472;-77
2022/12/29 02:51:28;;;;;;;0.73;0.73;;;17.40;66.30;;;;;;5083363;27;45968;-77
2022/12/29 03:08:46;;;;;;;0.90;0.90;;;17.30;66.70;;;;;;5085577;27;44453;-75
2022/12/29 03:22:55;;;;;;;0.80;0.80;;;17.40;66.30;;;;;;5107388;27;43524;-75
2022/12/29 03:30:08;;;;;;;0.80;0.80;;;17.40;66.30;;;;;;5075644;27;43798;-77
2022/12/29 03:40:21;;;;;;;0.83;0.83;;;17.40;66.60;;;;;;5089336;27;43770;-75
2022/12/29 03:43:26;;;;;;;0.73;0.73;;;17.30;66.60;;;;;;5098570;27;43893;-76
2022/12/29 03:46:48;;;;;;;0.70;0.70;;;17.30;66.90;;;;;;5084524;27;44096;-77
2022/12/29 04:00:33;;;;;;;0.90;0.90;;;17.40;66.40;;;;;;5109011;27;44039;-77
2022/12/29 04:10:33;;;;;;;0.80;0.80;;;17.40;66.60;;;;;;5110762;27;43598;-77
2022/12/29 04:17:31;;;;;;;0.70;0.70;;;17.30;66.90;;;;;;5121094;27;44473;-76
2022/12/29 04:24:12;;;;;;;0.70;0.70;;;17.30;66.80;;;;;;5123548;27;44017;-77
2022/12/29 04:27:51;;;;;;;0.80;0.80;;;17.30;66.90;;;;;;5117107;27;45499;-78
2022/12/29 04:31:39;;;;;;;0.80;0.80;;;17.20;66.90;;;;;;5124014;27;43509;-74
2022/12/29 04:46:06;;;;;;;0.70;0.70;;;17.50;66.30;;;;;;5098298;27;43485;-77
2022/12/29 04:53:06;;;;;;;0.60;0.60;;;17.40;66.30;;;;;;5103934;27;44027;-74
2022/12/29 04:56:38;;;;;;;0.80;0.80;;;17.40;66.40;;;;;;5093947;27;45445;-76
2022/12/29 05:00:01;;;;;;;0.80;0.80;;;17.40;66.60;;;;;;5100254;27;44963;-77
2022/12/29 05:03:38;;;;;;;0.67;0.67;;;17.30;66.70;;;;;;5086648;27;43518;-75
2022/12/29 05:07:12;;;;;;;0.90;0.90;;;17.40;66.80;;;;;;5086497;27;44002;-78
2022/12/29 05:21:05;;;;;;;0.70;0.70;;;17.40;66.40;;;;;;5079674;28;43527;-77
2022/12/29 05:35:19;;;;;;;0.70;0.70;;;17.40;66.80;;;;;;5042683;28;43612;-74
2022/12/29 05:42:28;;;;;;;0.73;0.73;;;17.40;66.60;;;;;;5042863;28;44183;-76
2022/12/29 05:53:49;;;;;;;0.80;0.80;;;17.40;66.80;;;;;;5050418;28;43829;-74
2022/12/29 05:57:38;;;;;;;0.80;0.80;;;17.50;66.30;;;;;;5043681;28;43413;-74
2022/12/29 06:07:32;;;;;;;0.70;0.70;;;17.50;66.20;;;;;;5042032;28;44050;-75
2022/12/29 06:11:01;;;;;;;0.70;0.70;;;17.50;66.10;;;;;;5062027;28;43676;-74
2022/12/29 06:22:26;;;;;;;0.70;0.70;;;17.40;66.70;;;;;;5046713;28;45812;-76
2022/12/29 06:29:31;;;;;;;0.80;0.80;;;17.40;66.60;;;;;;5105563;27;44091;-77
2022/12/29 06:43:08;;;;;;;0.80;0.80;;;17.40;66.70;;;;;;5082548;27;43574;-75
2022/12/29 06:49:45;;;;;;;0.77;0.77;;;17.30;66.70;;;;;;5077516;27;44642;-76
2022/12/29 06:52:45;;;;;;;0.90;0.90;;;17.30;67.00;;;;;;5076709;27;43467;-74
2022/12/29 06:55:58;;;;;;;0.80;0.80;;;17.40;66.80;;;;;;5081908;27;43443;-77
2022/12/29 07:02:42;;;;;;;0.83;0.83;;;17.60;65.80;;;;;;5099389;27;43399;-72
2022/12/29 07:06:00;;;;;;;0.90;0.90;;;17.60;65.80;;;;;;5098891;27;43464;-77
2022/12/29 07:17:05;;;;;;;0.80;0.80;;;17.50;66.10;;;;;;5100437;27;43426;-77
2022/12/29 07:23:38;;;;;;;0.80;0.80;;;17.40;66.60;;;;;;5079747;27;43521;-77
2022/12/29 07:26:47;;;;;;;0.80;0.80;;;17.50;66.50;;;;;;5075915;28;43575;-74
2022/12/29 07:29:15;;;;;;;0.70;0.70;;;17.40;66.40;;;;;;5078663;28;43471;-76
2022/12/29 07:31:44;;;;;;;0.80;0.80;;;17.40;66.50;;;;;;5079100;28;43478;-76
2022/12/29 07:34:12;;;;;;;0.83;0.83;;;17.40;66.60;;;;;;5075359;28;43469;-75
2022/12/29 07:36:40;;;;;;;0.83;0.83;;;17.40;66.70;;;;;;5065864;28;44044;-76
2022/12/29 07:39:08;;;;;;;0.80;0.80;;;17.40;66.80;;;;;;5065641;28;43622;-77
2022/12/29 07:41:36;;;;;;;0.80;0.80;;;17.40;66.60;;;;;;5064573;28;43516;-77
2022/12/29 07:44:04;;;;;;;0.80;0.80;;;17.40;66.60;;;;;;5049087;28;43531;-77
2022/12/29 07:46:37;;;;;;;0.90;0.90;;;17.40;66.70;;;;;;5065649;28;43816;-77
2022/12/29 07:49:25;;;;;;;0.90;0.90;;;17.40;66.80;;;;;;5066198;28;43508;-77
2022/12/29 07:51:53;;;;;;;0.90;0.90;;;17.30;66.70;;;;;;5066283;28;43918;-75
2022/12/29 07:54:22;;;;;;;1.00;1.00;;;17.40;67.00;;;;;;5065709;28;43471;-77
2022/12/29 07:56:51;;;;;;;0.80;0.80;;;17.40;66.70;;;;;;5065294;28;43755;-77
2022/12/29 07:59:19;;;;;;;1.13;0.70;;;17.60;66.40;;;;;;5062124;28;43961;-77
2022/12/29 08:01:47;;;;;;;1.00;1.00;;;17.60;65.90;;;;;;5047714;28;43494;-76
2022/12/29 08:04:15;;;;;;;1.00;1.00;;;17.60;65.80;;;;;;5063134;28;43612;-76
2022/12/29 08:06:45;;;;;;;0.73;0.73;;;17.60;66.00;;;;;;5064911;28;43640;-77
2022/12/29 08:09:13;;;;;;;0.90;0.90;;;17.50;66.20;;;;;;5048410;28;44561;-77
2022/12/29 08:11:49;;;;;;;0.80;0.80;;;17.60;66.20;;;;;;5063874;28;43435;-77
2022/12/29 08:14:18;;;;;;;0.90;0.90;;;17.50;66.10;;;;;;5064632;28;43579;-77
2022/12/29 08:16:46;;;;;;;0.90;0.90;;;17.50;66.20;;;;;;5041837;28;45751;-76
2022/12/29 08:19:14;;;;;;;0.90;0.90;;;17.50;66.40;;;;;;5064202;28;43484;-76
2022/12/29 08:21:42;;;;;;;0.70;0.70;;;17.50;67.30;;;;;;5062413;28;44165;-75
2022/12/29 08:24:11;;;;;;;0.80;0.80;;;17.40;66.70;;;;;;5080541;28;44486;-76
2022/12/29 08:26:39;;;;;;;0.63;0.63;;;17.40;66.60;;;;;;5087079;28;43961;-75
2022/12/29 08:29:07;;;;;;;0.80;0.80;;;17.40;66.60;;;;;;5086913;27;43566;-74
2022/12/29 08:31:35;;;;;;;0.90;0.90;;;17.40;66.60;;;;;;5086855;27;43488;-76
2022/12/29 08:34:03;;;;;;;0.70;0.70;;;17.40;66.70;;;;;;5073306;28;43526;-78
2022/12/29 08:36:31;;;;;;;0.70;0.70;;;17.40;66.80;;;;;;5089894;27;45011;-76
2022/12/29 08:38:59;;;;;;;0.80;0.80;;;17.40;67.00;;;;;;5086295;27;43810;-76
2022/12/29 08:41:28;;;;;;;0.80;0.80;;;17.40;67.00;;;;;;5087810;28;43865;-73
2022/12/29 08:43:56;;;;;;;0.83;0.83;;;17.50;66.80;;;;;;5088290;28;43485;-73
2022/12/29 08:46:24;;;;;;;0.90;0.90;;;17.50;66.40;;;;;;5064954;27;44525;-78
2022/12/29 08:48:52;;;;;;;0.90;0.90;;;17.60;66.30;;;;;;5069437;28;44303;-75
2022/12/29 08:51:20;;;;;;;0.80;0.80;;;17.50;66.20;;;;;;5069204;28;43434;-77
2022/12/29 08:53:51;;;;;;;0.70;0.70;;;17.50;66.30;;;;;;5087858;28;43435;-75
2022/12/29 08:56:19;;;;;;;0.87;0.87;;;17.50;66.60;;;;;;5087742;28;43757;-75
2022/12/29 08:58:52;;;;;;;0.83;0.83;;;17.50;66.50;;;;;;5065683;28;43416;-77
2022/12/29 09:01:22;;;;;;;0.77;0.77;;;17.50;66.40;;;;;;5069137;28;44032;-78
2022/12/29 09:03:51;;;;;;;0.80;0.80;;;17.50;66.50;;;;;;5087558;28;43480;-74
2022/12/29 09:06:38;;;;;;;1.00;1.00;;;17.50;66.60;;;;;;5087301;28;43859;-76
2022/12/29 09:09:07;;;;;;;0.90;0.90;;;17.40;66.60;;;;;;5088793;27;43963;-77
2022/12/29 09:11:35;;;;;;;1.20;1.20;;;17.40;66.90;;;;;;5088530;27;43467;-74
2022/12/29 09:14:05;;;;;;;0.90;0.90;;;17.40;66.80;;;;;;5066648;28;43562;-76
2022/12/29 09:16:33;;;;;;;1.10;1.10;;;17.40;66.70;;;;;;5081420;28;44318;-77
2022/12/29 09:19:01;;;;;;;1.10;1.10;;;17.40;66.70;;;;;;5087305;28;43487;-76
2022/12/29 09:21:29;;;;;;;1.10;1.10;;;17.40;66.80;;;;;;5087554;28;43371;-75
2022/12/29 09:23:57;;;;;;;1.13;1.13;;;17.40;66.80;;;;;;5068877;28;43812;-73
2022/12/29 09:26:25;;;;;;;1.63;1.53;;;17.40;67.00;;;;;;5086619;28;43958;-78
2022/12/29 09:28:53;;;;;;;1.27;1.27;;;17.40;66.90;;;;;;5087441;28;43379;-78
2022/12/29 09:31:22;;;;;;;1.37;1.37;;;17.50;66.70;;;;;;5087717;28;43849;-76
2022/12/29 09:33:51;;;;;;;1.20;1.20;;;17.60;66.10;;;;;;5087251;28;43801;-75
2022/12/29 09:36:18;;;;;;;1.30;1.20;;;17.70;66.70;;;;;;5068304;28;45546;-77
2022/12/29 09:38:46;;;;;;;1.30;1.30;;;17.70;66.00;;;;;;5086924;28;43476;-77
2022/12/29 09:41:17;;;;;;;1.40;1.40;;;17.60;65.90;;;;;;5067179;28;43565;-75
2022/12/29 09:43:57;;;;;;;1.30;1.30;;;17.60;66.20;;;;;;5068790;28;43590;-74
2022/12/29 09:46:27;;;;;;;1.43;1.43;;;17.60;66.10;;;;;;5087003;28;43920;-77
2022/12/29 09:49:01;;;;;;;1.40;1.40;;;17.60;66.10;;;;;;5087070;28;43991;-77
2022/12/29 09:51:29;;;;;;;1.60;1.50;;;17.50;66.20;;;;;;5087084;28;43520;-76
2022/12/29 09:53:58;;;;;;;1.30;1.30;;;17.50;66.40;;;;;;5086759;28;44118;-75
2022/12/29 09:56:26;;;;;;;1.30;1.30;;;17.50;66.60;;;;;;5082693;28;43954;-77
2022/12/29 09:58:56;;;;;;;1.73;1.63;;;17.40;66.60;;;;;;5067987;28;44824;-74
2022/12/29 10:01:29;;;;;;;1.40;1.40;;;17.50;66.60;;;;;;5086870;28;43471;-77
2022/12/29 10:03:57;;;;;;;1.80;1.70;;;17.40;66.60;;;;;;5085590;28;43478;-76
2022/12/29 10:06:27;;;;;;;1.57;1.57;;;17.40;66.60;;;;;;5086455;28;43603;-76
2022/12/29 10:08:58;;;;;;;1.60;1.50;;;17.40;66.70;;;;;;5083652;28;43404;-77
2022/12/29 10:11:34;;;;;;;1.80;1.70;;;17.40;66.90;;;;;;5084629;28;44063;-73
2022/12/29 10:14:14;;;;;;;1.70;1.60;;;17.40;66.90;;;;;;5068282;28;43523;-77
2022/12/29 10:16:48;;;;;;;1.67;1.60;;;17.40;66.70;;;;;;5058457;28;44760;-75
2022/12/29 10:19:27;;;;;;;1.60;1.50;;;17.40;66.80;;;;;;5067664;28;44815;-76
2022/12/29 10:22:05;;;;;;;1.67;1.60;;;17.40;66.80;;;;;;5086576;28;43397;-77
2022/12/29 10:24:33;;;;;;;1.77;1.70;;;17.40;66.90;;;;;;5080975;28;43313;-76
2022/12/29 10:27:01;;;;;;;1.57;1.50;;;17.30;67.00;;;;;;5086427;28;43857;-77
2022/12/29 10:29:33;;;;;;;1.63;1.57;;;17.40;67.10;;;;;;5083901;28;43497;-77
2022/12/29 10:32:03;;;;;;;1.57;1.57;;;17.50;66.80;;;;;;5068169;28;43897;-77
2022/12/29 10:34:34;;;;;;;1.80;1.70;;;17.60;66.30;;;;;;5084807;28;43741;-74
2022/12/29 10:37:04;;;;;;;2.00;1.90;;;17.60;66.00;;;;;;5062039;28;45696;-75
2022/12/29 10:39:33;;;;;;;2.00;1.90;;;17.60;66.00;;;;;;5084525;28;43949;-76
2022/12/29 10:42:05;;;;;;;2.10;1.90;;;17.60;66.30;;;;;;5086317;28;43434;-75
2022/12/29 10:44:34;;;;;;;1.57;1.47;;;17.60;66.40;;;;;;5068322;28;43482;-75
2022/12/29 10:47:05;;;;;;;1.97;1.80;;;17.60;66.30;;;;;;5067201;28;43915;-75
2022/12/29 10:49:35;;;;;;;1.40;1.40;;;17.60;66.40;;;;;;5061071;28;43755;-76
2022/12/29 10:52:03;;;;;;;1.50;1.50;;;17.50;66.40;;;;;;5083310;27;43576;-77
2022/12/29 10:54:37;;;;;;;1.57;1.57;;;17.50;66.50;;;;;;5086711;28;43475;-76
2022/12/29 10:57:08;;;;;;;1.57;1.50;;;17.40;66.60;;;;;;5067180;28;45012;-76
2022/12/29 10:59:36;;;;;;;1.60;1.60;;;17.40;66.80;;;;;;5067377;28;43447;-77
2022/12/29 11:02:22;;;;;;;1.60;1.50;;;17.50;66.70;;;;;;5085744;28;43422;-76
2022/12/29 11:04:53;;;;;;;1.70;1.60;;;17.40;66.60;;;;;;5067360;28;43570;-76
2022/12/29 11:07:21;;;;;;;1.77;1.67;;;17.40;66.70;;;;;;5065105;28;45624;-76
2022/12/29 11:09:54;;;;;;;2.00;1.90;;;17.40;67.50;;;;;;5067588;28;44410;-77
2022/12/29 11:12:24;;;;;;;2.33;2.03;;;17.40;66.90;;;;;;5071521;28;43471;-75
2022/12/29 11:15:13;;;;;;;1.83;1.73;;;17.40;67.10;;;;;;5089788;28;43424;-75
2022/12/29 11:17:46;;;;;;;1.77;1.50;;;17.50;66.90;;;;;;5065381;28;45324;-76
2022/12/29 11:20:30;;;;;;;2.00;1.90;;;17.60;66.50;;;;;;5068231;28;45549;-76
2022/12/29 11:22:58;;;;;;;1.80;1.70;;;17.60;66.20;;;;;;5089272;28;43470;-77
2022/12/29 11:25:26;;;;;;;1.90;1.70;;;17.60;66.10;;;;;;5088975;28;43542;-75
2022/12/29 11:27:58;;;;;;;1.87;1.77;;;17.60;66.20;;;;;;5089040;28;43928;-75
2022/12/29 11:30:28;;;;;;;1.80;1.70;;;17.60;66.50;;;;;;5089313;28;43970;-75
2022/12/29 11:32:57;;;;;;;1.70;1.60;;;17.60;66.40;;;;;;5087790;28;43944;-77
2022/12/29 11:35:34;;;;;;;1.83;1.73;;;17.60;66.40;;;;;;5088480;28;43541;-77
2022/12/29 11:38:02;;;;;;;1.77;1.77;;;17.50;66.40;;;;;;5082374;28;43929;-76
2022/12/29 11:40:30;;;;;;;1.73;1.63;;;17.50;66.60;;;;;;5088917;28;43432;-76
2022/12/29 11:42:59;;;;;;;1.90;1.90;;;17.50;66.70;;;;;;5082517;28;43403;-75
2022/12/29 11:45:27;;;;;;;1.90;1.80;;;17.50;67.70;;;;;;5082526;28;43364;-77
2022/12/29 11:47:58;;;;;;;1.90;1.80;;;17.50;66.80;;;;;;5087142;28;43932;-75
2022/12/29 11:50:27;;;;;;;1.80;1.70;;;17.50;66.80;;;;;;5088739;28;43723;-78
2022/12/29 11:53:01;;;;;;;1.60;1.50;;;17.50;66.80;;;;;;5088724;28;43639;-76
2022/12/29 11:55:29;;;;;;;1.93;1.83;;;17.40;66.80;;;;;;5088910;28;43396;-77
2022/12/29 11:57:58;;;;;;;1.90;1.80;;;17.40;66.90;;;;;;5070067;28;46035;-73
2022/12/29 12:00:26;;;;;;;1.97;1.87;;;17.40;67.10;;;;;;5088736;28;43492;-76
2022/12/29 12:02:57;;;;;;;1.70;1.60;;;17.50;67.00;;;;;;5088062;28;43881;-76
2022/12/29 12:05:30;;;;;;;1.70;1.70;;;17.60;66.70;;;;;;5070855;28;43507;-77
2022/12/29 12:08:00;;;;;;;1.70;1.70;;;17.60;66.40;;;;;;5088416;28;43596;-76
2022/12/29 12:10:30;;;;;;;1.40;1.40;;;17.60;66.30;;;;;;5070194;28;44941;-77
2022/12/29 12:13:03;;;;;;;1.80;1.70;;;17.60;66.40;;;;;;5069894;28;43475;-76
2022/12/29 12:15:38;;;;;;;1.63;1.60;;;17.50;66.60;;;;;;5083687;28;43677;-76
2022/12/29 12:18:18;;;;;;;1.53;1.43;;;17.50;66.60;;;;;;5068812;28;45640;-75
2022/12/29 12:20:48;;;;;;;1.90;1.80;;;17.50;66.50;;;;;;5082553;27;43774;-76
2022/12/29 12:23:23;;;;;;;1.40;1.40;;;17.50;66.60;;;;;;5087927;28;43492;-76
2022/12/29 12:25:57;;;;;;;1.50;1.50;;;17.50;66.70;;;;;;5042789;28;43405;-77
2022/12/29 12:28:29;;;;;;;1.90;1.80;;;17.50;66.70;;;;;;5047837;28;43916;-77
2022/12/29 12:31:04;;;;;;;1.33;1.33;;;17.50;67.00;;;;;;5042151;28;43524;-75
2022/12/29 12:33:36;;;;;;;1.33;1.33;;;17.50;67.00;;;;;;5047733;28;43363;-76
2022/12/29 12:36:23;;;;;;;1.70;1.60;;;17.60;66.70;;;;;;5045857;28;43516;-77
2022/12/29 12:38:55;;;;;;;1.70;1.70;;;17.60;66.40;;;;;;5047062;28;44927;-75
2022/12/29 12:41:29;;;;;;;1.40;1.40;;;17.60;66.40;;;;;;5041658;28;43384;-76
2022/12/29 12:43:59;;;;;;;1.57;1.57;;;17.60;66.40;;;;;;5046150;28;43455;-72
2022/12/29 12:46:58;;;;;;;1.60;1.50;;;17.50;66.60;;;;;;5047475;28;43292;-72
2022/12/29 12:49:37;;;;;;;1.50;1.50;;;17.50;66.70;;;;;;5047571;28;44023;-77
2022/12/29 12:52:09;;;;;;;1.40;1.40;;;17.50;66.60;;;;;;5045324;28;43519;-78
2022/12/29 12:54:48;;;;;;;1.57;1.50;;;17.50;66.70;;;;;;5047065;28;43422;-74
2022/12/29 12:57:18;;;;;;;1.67;1.67;;;17.50;66.70;;;;;;5047797;28;43495;-77
2022/12/29 12:59:53;;;;;;;1.57;1.57;;;17.50;66.80;;;;;;5041900;28;45842;-76
2022/12/29 13:02:29;;;;;;;1.80;1.70;;;17.40;67.00;;;;;;5044323;28;43416;-76
2022/12/29 13:05:20;;;;;;;1.37;1.37;;;17.50;67.10;;;;;;5046970;28;43403;-74
2022/12/29 13:08:05;;;;;;;1.77;1.67;;;17.60;66.70;;;;;;5046010;28;43648;-75
2022/12/29 13:10:42;;;;;;;1.80;1.70;;;17.70;66.50;;;;;;5046885;28;43883;-74
2022/12/29 13:13:43;;;;;;;1.20;1.20;;;17.70;66.40;;;;;;5046381;28;43317;-77
2022/12/29 13:16:13;;;;;;;1.40;1.40;;;17.60;66.40;;;;;;5042434;28;43531;-76
2022/12/29 13:18:47;;;;;;;1.50;1.50;;;17.60;66.70;;;;;;5045623;28;43392;-78
2022/12/29 13:21:24;;;;;;;1.27;1.27;;;17.60;66.60;;;;;;5046602;28;43587;-77
2022/12/29 13:23:55;;;;;;;1.43;1.43;;;17.60;66.60;;;;;;5050033;28;44671;-75
2022/12/29 13:26:25;;;;;;;1.40;1.40;;;17.60;66.70;;;;;;5064906;28;43399;-75
2022/12/29 13:28:55;;;;;;;1.17;1.17;;;17.50;66.70;;;;;;5067527;28;43967;-74
2022/12/29 13:31:28;;;;;;;1.73;1.63;;;17.50;66.80;;;;;;5066581;28;43916;-77
2022/12/29 13:34:01;;;;;;;1.57;1.50;;;17.50;66.40;;;;;;5066187;28;43398;-71
2022/12/29 13:36:34;;;;;;;1.27;1.23;;;17.50;66.40;;;;;;5059672;28;43508;-76
2022/12/29 13:39:04;;;;;;;1.57;1.57;;;17.50;66.50;;;;;;5061496;28;43447;-76
2022/12/29 13:41:34;;;;;;;1.50;1.40;;;17.50;66.60;;;;;;5060956;28;43889;-76
2022/12/29 13:44:03;;;;;;;2.17;1.50;;;17.50;66.70;;;;;;5065052;28;44650;-76
2022/12/29 13:46:34;;;;;;;1.67;1.60;;;17.40;66.70;;;;;;5066581;28;43442;-75
2022/12/29 13:49:03;;;;;;;1.50;1.40;;;17.40;66.90;;;;;;5067187;28;43425;-76
2022/12/29 13:51:32;;;;;;;1.60;1.50;;;17.40;67.00;;;;;;5066289;28;44062;-76
2022/12/29 13:54:11;;;;;;;1.47;1.37;;;17.50;66.80;;;;;;5065246;28;43969;-75
2022/12/29 13:56:40;;;;;;;1.60;1.50;;;17.70;66.50;;;;;;5066178;28;43394;-77
2022/12/29 13:59:13;;;;;;;1.60;1.50;;;17.70;66.20;;;;;;5066879;28;43402;-76
2022/12/29 14:01:42;;;;;;;1.30;1.30;;;17.70;66.00;;;;;;5064615;28;45757;-77
2022/12/29 14:04:13;;;;;;;2.47;1.33;;;17.70;66.30;;;;;;5066304;28;43886;-75
2022/12/29 14:06:42;;;;;;;1.50;1.40;;;17.70;66.50;;;;;;5066769;28;43951;-76
2022/12/29 14:09:40;;;;;;;1.60;1.50;;;17.60;66.30;;;;;;5065849;28;43567;-78
2022/12/29 14:12:20;;;;;;;1.53;1.23;;;17.60;66.40;;;;;;5061741;28;43850;-75
2022/12/29 14:14:49;;;;;;;1.40;1.40;;;17.60;66.60;;;;;;5064668;28;44040;-77
2022/12/29 14:17:18;;;;;;;1.90;1.33;;;17.60;66.70;;;;;;5062359;28;43510;-76
2022/12/29 14:19:46;;;;;;;1.30;1.30;;;17.50;66.90;;;;;;5066340;28;44248;-76
2022/12/29 14:22:17;;;;;;;1.70;1.70;;;17.50;67.00;;;;;;5061377;28;43934;-77
2022/12/29 14:24:46;;;;;;;1.50;1.50;;;17.50;67.00;;;;;;5076590;28;43867;-75
2022/12/29 14:27:45;;;;;;;1.37;1.37;;;17.50;67.00;;;;;;5067841;28;43471;-77
2022/12/29 14:30:47;;;;;;;1.50;1.40;;;17.50;67.10;;;;;;5068087;28;43574;-76
2022/12/29 14:33:15;;;;;;;1.50;1.40;;;17.50;67.30;;;;;;5078487;28;44019;-76
2022/12/29 14:35:45;;;;;;;1.40;1.40;;;17.40;67.50;;;;;;5086600;27;44007;-77
2022/12/29 14:38:19;;;;;;;1.30;1.30;;;17.50;67.50;;;;;;5062693;28;43826;-77
2022/12/29 14:40:48;;;;;;;1.53;1.43;;;17.60;67.10;;;;;;5086280;28;43456;-76
2022/12/29 14:43:23;;;;;;;1.60;1.50;;;17.70;66.80;;;;;;5086040;28;44106;-77
2022/12/29 14:45:57;;;;;;;1.70;1.60;;;17.70;66.60;;;;;;5086252;27;44846;-77
2022/12/29 14:48:39;;;;;;;1.23;1.23;;;17.70;66.60;;;;;;5071482;28;43480;-77
2022/12/29 14:51:21;;;;;;;1.40;1.40;;;17.60;66.80;;;;;;5086325;28;43473;-76
2022/12/29 14:53:51;;;;;;;1.63;1.63;;;17.60;66.90;;;;;;5089862;28;45101;-78
2022/12/29 14:56:20;;;;;;;1.30;1.30;;;17.60;66.80;;;;;;5089448;28;43459;-75
2022/12/29 14:58:50;;;;;;;1.37;1.37;;;17.60;66.80;;;;;;5089588;28;43466;-75
2022/12/29 15:01:20;;;;;;;1.50;1.50;;;17.60;66.90;;;;;;5086986;28;44041;-77
2022/12/29 15:03:50;;;;;;;1.27;1.27;;;17.50;67.00;;;;;;5088724;28;43622;-76
2022/12/29 15:06:22;;;;;;;1.10;1.10;;;17.50;67.20;;;;;;5087499;28;43469;-77
2022/12/29 15:08:55;;;;;;;1.60;1.50;;;17.50;67.30;;;;;;5089728;28;43478;-78
2022/12/29 15:11:23;;;;;;;1.20;1.20;;;17.50;67.10;;;;;;5071507;28;43803;-77
2022/12/29 15:13:51;;;;;;;1.23;1.20;;;17.50;67.10;;;;;;5089308;28;43788;-76
2022/12/29 15:16:23;;;;;;;1.17;1.17;;;17.50;67.10;;;;;;5088881;28;43513;-76
2022/12/29 15:18:51;;;;;;;1.13;1.13;;;17.50;67.20;;;;;;5087119;28;43438;-76
2022/12/29 15:21:21;;;;;;;1.13;1.13;;;17.50;67.30;;;;;;5089888;28;43442;-77
2022/12/29 15:23:49;;;;;;;1.40;1.40;;;17.50;67.50;;;;;;5088585;28;44364;-77
2022/12/29 15:26:22;;;;;;;1.20;1.20;;;17.50;67.30;;;;;;5089072;28;43469;-76
2022/12/29 15:28:51;;;;;;;1.20;1.20;;;17.70;66.90;;;;;;5070772;28;43479;-77
2022/12/29 15:31:19;;;;;;;1.60;1.50;;;17.70;66.60;;;;;;5089457;28;43463;-77
2022/12/29 15:34:03;;;;;;;1.30;1.30;;;17.70;66.50;;;;;;5068158;28;45386;-72
2022/12/29 15:36:37;;;;;;;1.17;1.17;;;17.70;66.60;;;;;;5082956;28;43475;-76
2022/12/29 15:39:18;;;;;;;1.13;1.13;;;17.60;66.60;;;;;;5089070;28;43372;-77
2022/12/29 15:44:39;;;;;;;1.53;1.43;;;17.60;66.40;;;;;;5080366;28;43648;-78
2022/12/29 15:47:09;;;;;;;1.90;1.30;;;17.60;66.60;;;;;;5080084;28;44068;-77
2022/12/29 15:49:37;;;;;;;4.70;1.70;;;17.60;66.80;;;;;;5088763;28;43465;-77
2022/12/29 15:52:07;;;;;;;4.93;1.70;;;17.50;66.90;;;;;;5089213;28;43505;-76
2022/12/29 15:54:35;;;;;;;3.50;1.63;;;17.50;67.20;;;;;;5088578;28;43579;-75
2022/12/29 15:57:05;;;;;;;3.33;1.70;;;17.50;67.10;;;;;;5087895;28;43610;-75
2022/12/29 15:59:33;;;;;;;1.70;1.60;;;17.50;67.10;;;;;;5088790;28;43544;-75
2022/12/29 16:02:02;;;;;;;1.67;1.50;;;17.50;67.10;;;;;;5087667;28;43382;-77
2022/12/29 16:04:38;;;;;;;2.53;1.30;;;17.50;67.20;;;;;;5081793;28;44107;-77
2022/12/29 16:07:28;;;;;;;4.33;1.90;;;17.50;67.30;;;;;;5087177;28;44031;-72
2022/12/29 16:09:56;;;;;;;4.07;1.70;;;17.50;67.70;;;;;;5070153;28;43980;-76
2022/12/29 16:12:27;;;;;;;3.00;1.87;;;17.50;67.70;;;;;;5088573;28;43560;-75
2022/12/29 16:14:56;;;;;;;4.00;1.70;;;17.60;67.40;;;;;;5087761;28;43767;-76
2022/12/29 16:17:26;;;;;;;1.73;1.40;;;17.70;67.00;;;;;;5085925;28;43458;-77
2022/12/29 16:19:55;;;;;;;2.53;1.80;;;17.70;66.50;;;;;;5069160;28;43544;-77
2022/12/29 16:22:28;;;;;;;3.27;1.70;;;17.70;66.50;;;;;;5088323;28;43394;-74
2022/12/29 16:24:57;;;;;;;7.37;1.97;;;17.60;66.60;;;;;;5067893;28;45808;-77
2022/12/29 16:27:37;;;;;;;4.17;1.90;;;17.60;66.80;;;;;;5068499;28;44401;-74
2022/12/29 16:30:08;;;;;;;2.17;1.70;;;17.60;66.80;;;;;;5068389;28;43339;-77
2022/12/29 16:32:36;;;;;;;1.83;1.70;;;17.60;67.00;;;;;;5087895;28;43489;-76
2022/12/29 16:35:11;;;;;;;1.70;1.60;;;17.60;67.10;;;;;;5087687;28;43595;-77
2022/12/29 16:37:39;;;;;;;2.07;1.70;;;17.50;67.10;;;;;;5087945;28;43503;-75
2022/12/29 16:40:25;;;;;;;4.10;1.70;;;17.50;67.50;;;;;;5087923;28;43440;-77
2022/12/29 16:42:57;;;;;;;1.90;1.73;;;17.50;67.50;;;;;;5088231;28;43457;-76
2022/12/29 16:46:07;;;;;;;1.93;1.53;;;17.50;68.20;;;;;;5082062;28;43955;-77
2022/12/29 16:48:36;;;;;;;1.60;1.50;;;17.50;67.50;;;;;;5033280;28;43711;-76
2022/12/29 16:51:05;;;;;;;1.87;1.70;;;17.50;67.60;;;;;;5069293;28;43459;-75
2022/12/29 16:53:35;;;;;;;2.33;2.23;;;17.50;67.70;;;;;;5088145;28;43420;-78
2022/12/29 16:56:04;;;;;;;2.97;1.83;;;17.50;68.10;;;;;;5069072;28;45213;-75
2022/12/29 16:58:35;;;;;;;2.30;1.73;;;17.60;68.10;;;;;;5066189;28;44747;-76
2022/12/29 17:01:04;;;;;;;3.37;1.40;;;17.70;67.70;;;;;;5087635;28;43567;-77
2022/12/29 17:03:34;;;;;;;1.70;1.53;;;17.70;67.40;;;;;;5086552;28;43510;-75
2022/12/29 17:06:03;;;;;;;1.90;1.80;;;17.70;67.30;;;;;;5068669;28;46195;-76
2022/12/29 17:08:40;;;;;;;1.60;1.50;;;17.60;67.40;;;;;;5067773;28;44865;-77
2022/12/29 17:14:00;;;;;;;2.00;1.70;;;17.60;67.70;;;;;;5078398;28;43988;-77
2022/12/29 17:16:28;;;;;;;2.07;1.40;;;17.60;67.50;;;;;;5086629;28;44029;-77
2022/12/29 17:18:56;;;;;;;2.70;1.83;;;17.60;67.60;;;;;;5068957;28;44295;-76
2022/12/29 17:21:24;;;;;;;1.30;1.30;;;17.60;67.70;;;;;;5087639;28;44202;-76
2022/12/29 17:23:52;;;;;;;3.80;1.40;;;17.60;67.90;;;;;;5087090;28;43551;-77
2022/12/29 17:26:20;;;;;;;1.60;1.50;;;17.50;68.20;;;;;;5082771;28;43928;-77
2022/12/29 17:28:48;;;;;;;1.87;1.70;;;17.60;68.10;;;;;;5068613;28;44373;-76
2022/12/29 17:31:17;;;;;;;1.63;1.47;;;17.60;68.00;;;;;;5087142;28;43422;-76
2022/12/29 17:33:47;;;;;;;2.70;1.30;;;17.60;68.00;;;;;;5068567;28;43852;-76
2022/12/29 17:36:15;;;;;;;1.60;1.50;;;17.60;68.00;;;;;;5086663;28;43940;-76
2022/12/29 17:38:43;;;;;;;1.30;1.30;;;17.50;68.00;;;;;;5068633;28;44595;-76
2022/12/29 17:41:12;;;;;;;1.30;1.30;;;17.50;68.40;;;;;;5085178;28;43454;-73
2022/12/29 17:43:40;;;;;;;1.87;1.60;;;17.60;68.40;;;;;;5087336;28;43626;-75
2022/12/29 17:46:08;;;;;;;1.70;1.60;;;17.70;68.10;;;;;;5068002;28;45374;-77
2022/12/29 17:48:37;;;;;;;1.77;1.53;;;17.80;67.80;;;;;;5086804;28;43379;-74
2022/12/29 17:51:06;;;;;;;1.40;1.30;;;17.80;67.40;;;;;;5086297;28;43440;-75
2022/12/29 17:53:34;;;;;;;1.60;1.50;;;17.80;67.60;;;;;;5067139;28;43730;-78
2022/12/29 17:56:02;;;;;;;1.50;1.40;;;17.70;67.90;;;;;;5086016;28;43934;-77
2022/12/29 17:58:31;;;;;;;1.77;1.30;;;17.70;67.70;;;;;;5068110;28;44821;-76
2022/12/29 18:01:00;;;;;;;1.43;1.37;;;17.70;67.60;;;;;;5084866;28;44235;-76
2022/12/29 18:03:30;;;;;;;1.97;1.43;;;17.70;67.60;;;;;;5086412;28;43470;-76